Time;durP1;ratioP1;P1;durP2;ratioP2;P2;SDS_P1;SDS_P2;PMS_P1;PMS_P2;Temp;Humidity;BMP_temperature;BMP_pressure;BME280_temperature;BME280_humidity;BME280_pressure;Samples;Min_cycle;Max_cycle;Signal;HPM_P1;HPM_P2
2021/09/20 00:01:05;;;;;;;2.53;2.33;;;18.20;99.90;;;;;;5013081;28;20472;-83
2021/09/20 00:03:33;;;;;;;3.37;2.87;;;18.30;99.90;;;;;;5000417;28;20457;-82
2021/09/20 00:06:02;;;;;;;3.27;2.80;;;18.10;99.90;;;;;;5014275;28;20567;-82
2021/09/20 00:08:30;;;;;;;3.70;3.40;;;18.00;99.90;;;;;;5018123;28;20480;-82
2021/09/20 00:11:01;;;;;;;3.60;3.30;;;18.00;99.90;;;;;;5016390;28;20452;-82
2021/09/20 00:13:34;;;;;;;2.90;2.60;;;18.00;99.90;;;;;;5004033;28;20449;-82
2021/09/20 00:16:03;;;;;;;3.50;3.20;;;18.00;99.90;;;;;;5032726;28;20463;-82
2021/09/20 00:18:31;;;;;;;3.80;2.90;;;18.10;99.90;;;;;;5015562;28;20457;-81
2021/09/20 00:20:59;;;;;;;3.57;3.27;;;18.20;99.90;;;;;;5004921;28;20458;-82
2021/09/20 00:23:27;;;;;;;3.30;3.00;;;18.10;99.90;;;;;;4997516;28;20996;-81
2021/09/20 00:25:57;;;;;;;3.73;3.23;;;18.20;99.90;;;;;;4999356;28;20486;-85
2021/09/20 00:28:25;;;;;;;3.30;3.00;;;18.20;99.90;;;;;;5004065;28;20457;-82
2021/09/20 00:30:55;;;;;;;3.70;3.03;;;18.20;99.90;;;;;;5003342;28;20466;-82
2021/09/20 00:33:23;;;;;;;5.40;3.37;;;18.10;99.90;;;;;;5018010;28;20457;-81
2021/09/20 00:35:52;;;;;;;3.53;2.93;;;18.10;99.90;;;;;;5026415;28;20455;-83
2021/09/20 00:38:20;;;;;;;3.13;2.83;;;18.10;99.90;;;;;;5017308;28;21296;-82
2021/09/20 00:40:48;;;;;;;2.53;2.33;;;18.20;99.90;;;;;;5027506;28;20451;-82
2021/09/20 00:43:17;;;;;;;4.60;3.00;;;18.20;99.90;;;;;;5021222;28;20971;-80
2021/09/20 00:45:45;;;;;;;2.60;2.40;;;18.10;99.90;;;;;;4998458;28;20809;-80
2021/09/20 00:48:15;;;;;;;2.90;2.70;;;18.20;99.90;;;;;;5015817;28;20461;-83
2021/09/20 00:50:43;;;;;;;3.13;2.90;;;18.10;99.90;;;;;;5010646;28;20465;-83
2021/09/20 00:53:12;;;;;;;3.10;2.63;;;18.00;99.90;;;;;;5013590;28;20483;-83
2021/09/20 00:55:42;;;;;;;3.20;2.53;;;17.90;1.00;;;;;;5016207;28;20473;-83
2021/09/20 00:58:11;;;;;;;4.20;3.80;;;18.00;99.90;;;;;;5015622;28;20453;-82
2021/09/20 01:00:40;;;;;;;3.53;2.57;;;17.90;99.90;;;;;;5014240;28;20460;-82
2021/09/20 01:03:08;;;;;;;3.70;3.40;;;17.80;1.00;;;;;;5031259;28;20543;-82
2021/09/20 01:05:39;;;;;;;3.30;3.00;;;17.70;1.00;;;;;;5014039;28;20469;-82
2021/09/20 01:08:07;;;;;;;3.43;2.77;;;17.70;1.00;;;;;;5009061;28;20465;-81
2021/09/20 01:10:35;;;;;;;2.80;2.63;;;17.80;1.00;;;;;;5009803;28;20458;-83
2021/09/20 01:13:06;;;;;;;3.20;2.90;;;17.90;1.00;;;;;;5006926;28;20973;-82
2021/09/20 01:15:34;;;;;;;3.20;2.90;;;17.80;1.00;;;;;;5015762;28;20480;-82
2021/09/20 01:18:02;;;;;;;3.00;2.80;;;17.90;1.00;;;;;;5020668;28;20461;-82
2021/09/20 01:20:31;;;;;;;3.73;3.43;;;18.00;1.00;;;;;;5012051;28;20454;-82
2021/09/20 01:23:02;;;;;;;3.60;3.30;;;18.00;99.90;;;;;;4994933;28;20442;-82
2021/09/20 01:25:30;;;;;;;3.10;2.90;;;18.00;99.90;;;;;;5015424;28;20547;-83
2021/09/20 01:27:59;;;;;;;2.30;2.10;;;18.00;99.90;;;;;;5013830;28;20968;-82
2021/09/20 01:30:28;;;;;;;2.87;2.67;;;18.00;99.90;;;;;;5008657;28;20461;-82
2021/09/20 01:32:56;;;;;;;4.20;3.10;;;18.00;1.00;;;;;;5013148;28;20457;-83
2021/09/20 01:35:26;;;;;;;4.50;2.90;;;18.00;99.90;;;;;;5014043;28;20465;-83
2021/09/20 01:37:54;;;;;;;3.60;3.27;;;18.00;99.90;;;;;;5030874;28;20480;-82
2021/09/20 01:40:24;;;;;;;3.47;3.17;;;17.90;1.00;;;;;;5013327;28;20961;-83
2021/09/20 01:42:53;;;;;;;3.20;3.00;;;17.80;1.00;;;;;;5014045;28;20468;-83
2021/09/20 01:45:23;;;;;;;2.97;2.63;;;17.90;1.00;;;;;;5013887;28;20500;-83
2021/09/20 01:47:52;;;;;;;2.80;2.40;;;17.80;1.00;;;;;;5016242;28;20511;-83
2021/09/20 01:50:21;;;;;;;2.67;2.47;;;17.70;1.00;;;;;;5018964;28;20462;-83
2021/09/20 01:52:50;;;;;;;4.50;2.70;;;17.80;1.00;;;;;;4999630;28;20553;-82
2021/09/20 01:55:18;;;;;;;3.10;2.90;;;17.60;1.00;;;;;;5025880;28;20469;-82
2021/09/20 01:57:48;;;;;;;2.93;2.33;;;17.70;1.00;;;;;;5009813;28;20977;-84
2021/09/20 02:00:18;;;;;;;3.90;3.53;;;17.80;1.00;;;;;;5011953;28;20454;-82
2021/09/20 02:02:46;;;;;;;4.30;3.20;;;17.90;1.00;;;;;;5009090;28;21016;-82
2021/09/20 02:05:15;;;;;;;4.17;3.80;;;17.90;1.00;;;;;;5010443;28;21032;-83
2021/09/20 02:07:44;;;;;;;3.97;3.60;;;17.80;1.00;;;;;;5013848;28;20865;-81
2021/09/20 02:10:15;;;;;;;3.77;3.37;;;17.80;1.00;;;;;;5005357;28;20453;-81
2021/09/20 02:12:43;;;;;;;4.23;3.60;;;17.80;1.00;;;;;;5012880;28;20453;-82
2021/09/20 02:15:14;;;;;;;4.27;3.67;;;17.70;1.00;;;;;;5001388;28;20531;-82
2021/09/20 02:17:43;;;;;;;2.87;2.67;;;17.70;1.00;;;;;;5012119;28;20458;-82
2021/09/20 02:20:12;;;;;;;3.07;2.77;;;17.80;1.00;;;;;;5012835;28;20477;-82
2021/09/20 02:22:40;;;;;;;4.40;3.77;;;17.80;99.90;;;;;;5031134;28;20455;-82
2021/09/20 02:25:10;;;;;;;3.13;2.80;;;17.80;99.90;;;;;;5029198;28;20481;-82
2021/09/20 02:27:39;;;;;;;2.67;2.47;;;17.80;99.90;;;;;;5017190;28;20497;-82
2021/09/20 02:30:09;;;;;;;4.17;3.47;;;17.60;1.00;;;;;;5027631;28;20486;-83
2021/09/20 02:32:39;;;;;;;3.47;3.17;;;17.70;1.00;;;;;;4995262;28;20441;-82
2021/09/20 02:35:08;;;;;;;2.80;2.60;;;17.70;1.00;;;;;;5004008;28;21124;-83
2021/09/20 02:37:37;;;;;;;6.23;3.10;;;17.80;1.00;;;;;;4997248;28;20473;-79
2021/09/20 02:40:09;;;;;;;3.27;2.97;;;17.80;1.00;;;;;;5027130;28;20551;-83
2021/09/20 02:42:37;;;;;;;3.70;3.40;;;17.80;1.00;;;;;;5017148;28;20453;-82
2021/09/20 02:45:08;;;;;;;3.70;3.30;;;17.70;1.00;;;;;;5012335;28;20476;-80
2021/09/20 02:47:38;;;;;;;2.83;2.50;;;17.60;1.00;;;;;;5027247;28;20485;-81
2021/09/20 02:50:09;;;;;;;3.17;2.97;;;17.60;1.00;;;;;;5004049;28;20469;-82
2021/09/20 02:52:37;;;;;;;4.90;4.43;;;17.60;1.00;;;;;;5012061;28;20484;-81
2021/09/20 02:55:08;;;;;;;4.53;4.07;;;17.60;1.00;;;;;;5012922;28;21291;-82
2021/09/20 02:57:37;;;;;;;6.50;3.70;;;17.70;1.00;;;;;;5023098;28;20456;-83
2021/09/20 03:00:07;;;;;;;3.50;3.20;;;17.70;1.00;;;;;;4992671;28;20462;-79
2021/09/20 03:02:35;;;;;;;3.40;2.80;;;17.80;1.00;;;;;;5027672;28;20460;-82
2021/09/20 03:05:06;;;;;;;4.53;3.17;;;17.70;1.00;;;;;;5014281;28;20493;-82
2021/09/20 03:07:35;;;;;;;5.10;3.97;;;17.60;1.00;;;;;;5003719;28;20465;-82
2021/09/20 03:10:04;;;;;;;4.33;3.37;;;17.70;1.00;;;;;;5038977;28;20462;-84
2021/09/20 03:12:33;;;;;;;5.07;3.50;;;17.70;1.00;;;;;;5016570;28;20534;-81
2021/09/20 03:15:01;;;;;;;4.30;3.60;;;17.70;1.00;;;;;;5013880;28;20476;-82
2021/09/20 03:17:29;;;;;;;3.63;3.00;;;17.70;1.00;;;;;;5011521;28;20472;-83
2021/09/20 03:19:59;;;;;;;4.10;3.37;;;17.70;1.00;;;;;;5037750;28;21863;-88
2021/09/20 03:22:28;;;;;;;4.83;3.70;;;17.70;1.00;;;;;;5035758;28;20556;-80
2021/09/20 03:24:57;;;;;;;4.80;3.30;;;17.80;1.00;;;;;;5015230;28;20489;-80
2021/09/20 03:27:25;;;;;;;3.60;3.07;;;17.80;1.00;;;;;;5014701;28;20491;-80
2021/09/20 03:29:53;;;;;;;4.60;3.50;;;17.70;1.00;;;;;;5023727;28;20461;-83
2021/09/20 03:32:22;;;;;;;3.83;3.40;;;17.60;1.00;;;;;;5022731;28;20457;-83
2021/09/20 03:34:50;;;;;;;5.10;2.77;;;17.60;1.00;;;;;;5019637;28;20484;-81
2021/09/20 03:37:18;;;;;;;4.23;3.80;;;17.70;1.00;;;;;;5012261;28;20463;-80
2021/09/20 03:39:48;;;;;;;3.80;2.97;;;17.60;1.00;;;;;;5017413;28;20456;-80
2021/09/20 03:42:17;;;;;;;5.37;3.60;;;17.60;1.00;;;;;;5021399;28;20466;-81
2021/09/20 03:44:45;;;;;;;4.00;3.70;;;17.60;1.00;;;;;;5021764;28;20535;-80
2021/09/20 03:47:13;;;;;;;3.33;3.03;;;17.60;1.00;;;;;;5016900;28;20465;-83
2021/09/20 03:49:42;;;;;;;3.00;2.77;;;17.60;1.00;;;;;;5025789;28;20465;-83
2021/09/20 03:52:10;;;;;;;3.60;3.30;;;17.60;1.00;;;;;;5035346;28;20461;-82
2021/09/20 03:54:38;;;;;;;3.43;2.83;;;17.50;1.00;;;;;;5020467;28;20488;-84
2021/09/20 03:57:08;;;;;;;3.50;3.10;;;17.40;1.00;;;;;;5026390;28;20478;-85
2021/09/20 03:59:37;;;;;;;4.30;3.40;;;17.30;1.00;;;;;;5040860;28;20460;-80
2021/09/20 04:02:06;;;;;;;4.83;4.30;;;17.40;1.00;;;;;;5033334;28;20503;-82
2021/09/20 04:04:34;;;;;;;4.40;3.30;;;17.50;1.00;;;;;;5040628;28;20476;-82
2021/09/20 04:07:05;;;;;;;3.83;3.53;;;17.50;1.00;;;;;;5021470;28;20485;-82
2021/09/20 04:09:33;;;;;;;4.00;3.57;;;17.60;99.90;;;;;;5023440;28;20449;-82
2021/09/20 04:12:02;;;;;;;5.03;4.43;;;17.60;99.90;;;;;;5012473;28;20467;-79
2021/09/20 04:14:31;;;;;;;4.30;3.90;;;17.70;99.90;;;;;;5012263;28;21328;-79
2021/09/20 04:17:00;;;;;;;5.20;3.73;;;17.70;99.90;;;;;;5010418;28;20456;-80
2021/09/20 04:19:28;;;;;;;5.53;4.00;;;17.70;99.90;;;;;;5011537;28;20459;-80
2021/09/20 04:21:56;;;;;;;3.60;3.30;;;17.80;99.90;;;;;;5017230;28;20468;-80
2021/09/20 04:24:24;;;;;;;4.77;4.00;;;17.70;99.90;;;;;;5007282;28;21211;-81
2021/09/20 04:26:52;;;;;;;3.73;2.97;;;17.50;1.00;;;;;;5028348;28;20469;-82
2021/09/20 04:29:21;;;;;;;4.20;3.80;;;17.30;1.00;;;;;;5008864;28;20449;-81
2021/09/20 04:31:51;;;;;;;4.53;3.47;;;17.20;1.00;;;;;;5015785;28;20460;-79
2021/09/20 04:34:19;;;;;;;4.30;3.67;;;17.20;1.00;;;;;;5010464;28;20473;-79
2021/09/20 04:36:47;;;;;;;5.10;4.10;;;17.10;1.00;;;;;;5010307;28;20540;-81
2021/09/20 04:39:16;;;;;;;4.00;3.30;;;17.00;1.00;;;;;;5020187;28;20454;-79
2021/09/20 04:41:44;;;;;;;4.27;3.97;;;16.90;1.00;;;;;;5009601;28;20201;-79
2021/09/20 04:44:12;;;;;;;4.53;3.23;;;16.90;25.30;;;;;;5010757;28;20479;-80
2021/09/20 04:46:40;;;;;;;5.93;4.20;;;17.00;1.00;;;;;;5010786;28;20480;-80
2021/09/20 04:49:10;;;;;;;5.57;5.07;;;17.10;1.00;;;;;;5010641;28;20461;-79
2021/09/20 04:51:38;;;;;;;4.90;3.87;;;17.00;1.00;;;;;;5008214;28;20458;-79
2021/09/20 04:54:06;;;;;;;5.10;4.20;;;17.00;10.80;;;;;;5006658;28;20500;-81
2021/09/20 04:56:35;;;;;;;4.80;4.27;;;17.00;43.70;;;;;;5011353;28;20449;-80
2021/09/20 04:59:03;;;;;;;3.83;3.43;;;17.00;60.50;;;;;;5010090;28;20464;-79
2021/09/20 05:01:31;;;;;;;5.70;3.53;;;17.10;13.90;;;;;;5009215;28;20598;-80
2021/09/20 05:04:00;;;;;;;4.97;4.00;;;17.10;26.10;;;;;;5008593;28;20486;-79
2021/09/20 05:06:29;;;;;;;5.40;4.90;;;17.20;4.40;;;;;;5006545;28;20472;-79
2021/09/20 05:08:58;;;;;;;4.70;4.17;;;17.10;10.20;;;;;;5010078;28;20460;-80
2021/09/20 05:11:27;;;;;;;4.37;3.97;;;17.10;8.80;;;;;;5008312;28;20467;-80
2021/09/20 05:13:55;;;;;;;4.30;3.90;;;17.20;1.00;;;;;;5013052;28;20479;-75
2021/09/20 05:16:23;;;;;;;4.80;3.93;;;17.30;1.00;;;;;;5008048;28;20457;-80
2021/09/20 05:18:51;;;;;;;4.30;3.90;;;17.40;1.00;;;;;;5003430;28;20995;-78
2021/09/20 05:21:20;;;;;;;4.53;4.13;;;17.30;1.00;;;;;;5026944;28;20480;-79
2021/09/20 05:23:50;;;;;;;6.90;5.17;;;17.40;1.00;;;;;;5007987;28;21004;-80
2021/09/20 05:26:18;;;;;;;6.10;4.30;;;17.40;1.00;;;;;;5007327;28;20807;-79
2021/09/20 05:28:46;;;;;;;4.93;4.20;;;17.50;1.00;;;;;;5010527;28;20484;-80
2021/09/20 05:31:15;;;;;;;4.00;3.60;;;17.50;1.00;;;;;;5007872;28;20472;-78
2021/09/20 05:33:43;;;;;;;7.80;5.07;;;17.50;1.00;;;;;;5011119;28;20520;-79
2021/09/20 05:36:11;;;;;;;5.60;4.73;;;17.50;1.00;;;;;;5010431;28;20457;-79
2021/09/20 05:38:39;;;;;;;6.03;4.67;;;17.60;1.00;;;;;;5010972;28;21037;-80
2021/09/20 05:41:09;;;;;;;4.73;4.33;;;17.50;1.00;;;;;;5009821;28;20468;-79
2021/09/20 05:43:37;;;;;;;6.60;5.40;;;17.40;1.00;;;;;;5010769;28;20921;-80
2021/09/20 05:46:06;;;;;;;7.67;4.53;;;17.50;1.00;;;;;;5010794;28;21473;-79
2021/09/20 05:48:34;;;;;;;6.20;4.90;;;17.40;1.00;;;;;;5002424;28;20469;-79
2021/09/20 05:51:03;;;;;;;5.20;4.23;;;17.40;1.00;;;;;;5010431;28;20803;-79
2021/09/20 05:53:31;;;;;;;5.07;4.57;;;17.50;1.00;;;;;;5010302;28;20468;-78
2021/09/20 05:55:59;;;;;;;4.97;4.47;;;17.60;1.00;;;;;;5010066;28;20467;-80
2021/09/20 05:58:29;;;;;;;5.40;4.30;;;17.50;1.00;;;;;;5010650;28;20564;-80
2021/09/20 06:00:57;;;;;;;6.67;5.20;;;17.60;1.00;;;;;;5010205;28;20455;-80
2021/09/20 06:03:27;;;;;;;5.57;5.07;;;17.60;1.00;;;;;;5009546;28;20533;-79
2021/09/20 06:05:55;;;;;;;6.83;5.07;;;17.70;1.00;;;;;;5010175;28;20474;-79
2021/09/20 06:08:23;;;;;;;12.13;6.33;;;17.70;1.00;;;;;;5009492;28;20464;-80
2021/09/20 06:10:52;;;;;;;7.10;5.43;;;17.70;1.00;;;;;;5009738;28;20452;-80
2021/09/20 06:13:20;;;;;;;7.73;5.90;;;17.70;1.00;;;;;;5009624;28;20450;-79
2021/09/20 06:15:50;;;;;;;5.40;4.33;;;17.70;1.00;;;;;;5007889;28;20478;-78
2021/09/20 06:18:18;;;;;;;5.63;4.87;;;17.80;1.00;;;;;;5005838;28;20449;-80
2021/09/20 06:20:47;;;;;;;6.77;5.57;;;17.60;1.00;;;;;;5010327;28;20457;-80
2021/09/20 06:23:15;;;;;;;6.80;5.27;;;17.50;1.00;;;;;;5008964;28;20460;-80
2021/09/20 06:25:43;;;;;;;5.63;5.07;;;17.60;1.00;;;;;;5008908;28;20480;-80
2021/09/20 06:28:11;;;;;;;5.60;5.00;;;17.70;1.00;;;;;;5009547;28;21067;-79
2021/09/20 06:30:40;;;;;;;5.60;5.10;;;17.80;1.00;;;;;;5008922;28;20464;-80
2021/09/20 06:33:12;;;;;;;8.20;5.43;;;17.80;1.00;;;;;;5008041;28;20487;-79
2021/09/20 06:35:40;;;;;;;6.50;5.90;;;17.90;1.00;;;;;;5009221;28;20481;-80
2021/09/20 06:38:09;;;;;;;6.90;6.07;;;17.90;1.00;;;;;;5006946;28;20471;-79
2021/09/20 06:40:37;;;;;;;6.23;5.03;;;17.80;1.00;;;;;;5008596;28;20465;-80
2021/09/20 06:43:06;;;;;;;4.73;4.23;;;17.80;1.00;;;;;;5006360;28;20477;-80
2021/09/20 06:45:34;;;;;;;5.93;4.77;;;17.90;1.00;;;;;;5007972;28;21012;-79
2021/09/20 06:48:03;;;;;;;6.30;4.90;;;17.80;1.00;;;;;;5007366;28;20476;-77
2021/09/20 06:50:32;;;;;;;5.20;4.60;;;17.80;1.00;;;;;;5002666;28;20450;-79
2021/09/20 06:53:01;;;;;;;5.90;5.37;;;17.80;1.00;;;;;;5008353;28;20202;-79
2021/09/20 06:55:29;;;;;;;6.63;5.20;;;17.80;1.00;;;;;;5009296;28;20473;-80
2021/09/20 06:57:59;;;;;;;6.70;5.40;;;17.90;1.00;;;;;;5008384;28;20456;-80
2021/09/20 07:00:27;;;;;;;6.20;4.67;;;17.90;1.00;;;;;;5007871;28;20461;-79
2021/09/20 07:02:56;;;;;;;6.90;6.20;;;18.00;1.00;;;;;;5006648;28;20489;-79
2021/09/20 07:05:24;;;;;;;6.50;5.63;;;18.00;1.00;;;;;;5008815;28;20480;-79
2021/09/20 07:07:54;;;;;;;5.77;5.10;;;17.90;1.00;;;;;;5001869;28;20465;-80
2021/09/20 07:10:22;;;;;;;7.60;6.07;;;18.00;1.00;;;;;;5008852;28;20459;-81
2021/09/20 07:12:51;;;;;;;6.43;5.40;;;18.00;1.00;;;;;;5008819;28;20544;-81
2021/09/20 07:15:19;;;;;;;9.73;6.17;;;18.00;1.00;;;;;;5010013;28;20471;-80
2021/09/20 07:17:47;;;;;;;6.77;6.07;;;18.10;1.00;;;;;;5014240;28;20441;-80
2021/09/20 07:20:16;;;;;;;4.87;4.37;;;18.10;1.00;;;;;;5014820;28;20465;-81
2021/09/20 07:22:44;;;;;;;8.03;5.90;;;18.10;1.00;;;;;;5015501;28;20449;-80
2021/09/20 07:25:14;;;;;;;6.70;5.50;;;18.00;1.00;;;;;;5015502;28;20461;-80
2021/09/20 07:27:42;;;;;;;6.77;5.70;;;18.00;1.00;;;;;;5015497;28;20445;-79
2021/09/20 07:30:17;;;;;;;5.90;4.33;;;18.00;1.00;;;;;;5008513;28;20600;-80
2021/09/20 07:32:46;;;;;;;9.30;6.87;;;18.00;1.00;;;;;;5011962;28;20449;-80
2021/09/20 07:35:16;;;;;;;6.80;5.80;;;18.00;1.00;;;;;;5013630;28;20854;-79
2021/09/20 07:37:45;;;;;;;8.37;6.47;;;17.90;1.00;;;;;;5016184;28;20515;-80
2021/09/20 07:40:16;;;;;;;6.73;6.03;;;17.90;1.00;;;;;;5013644;28;20543;-78
2021/09/20 07:42:45;;;;;;;9.90;6.70;;;18.00;7.30;;;;;;5013334;28;20464;-81
2021/09/20 07:45:13;;;;;;;7.00;6.30;;;18.10;1.00;;;;;;5015494;28;20542;-80
2021/09/20 07:47:41;;;;;;;7.40;6.27;;;18.20;1.00;;;;;;5013305;28;20838;-81
2021/09/20 07:50:10;;;;;;;7.37;6.60;;;18.20;1.00;;;;;;5011069;28;20485;-82
2021/09/20 07:52:38;;;;;;;7.83;6.23;;;18.30;1.00;;;;;;5015641;28;20459;-80
2021/09/20 07:55:08;;;;;;;7.37;6.17;;;18.20;1.00;;;;;;5014910;28;20487;-80
2021/09/20 07:57:38;;;;;;;6.83;6.13;;;18.20;1.00;;;;;;5014238;28;20460;-80
2021/09/20 08:00:08;;;;;;;7.83;7.03;;;18.20;1.00;;;;;;5014541;28;20453;-80
2021/09/20 08:02:36;;;;;;;6.60;5.27;;;18.30;1.00;;;;;;5015212;28;20960;-79
2021/09/20 08:05:07;;;;;;;9.30;7.03;;;18.30;1.00;;;;;;5014967;28;20662;-81
2021/09/20 08:07:35;;;;;;;7.17;6.00;;;18.30;1.00;;;;;;5015263;28;20476;-81
2021/09/20 08:10:05;;;;;;;10.50;6.63;;;18.40;1.00;;;;;;5013657;28;21003;-80
2021/09/20 08:12:33;;;;;;;7.03;6.23;;;18.40;1.00;;;;;;5011390;28;20442;-81
2021/09/20 08:15:04;;;;;;;7.53;6.73;;;18.50;1.00;;;;;;5002227;28;20861;-81
2021/09/20 08:17:33;;;;;;;6.03;5.43;;;18.50;1.00;;;;;;5008636;28;20457;-80
2021/09/20 08:20:02;;;;;;;7.20;5.70;;;18.50;1.00;;;;;;5014130;28;20453;-79
2021/09/20 08:22:30;;;;;;;7.87;6.93;;;18.50;1.00;;;;;;5045517;22;20567;-78
2021/09/20 08:24:58;;;;;;;7.40;6.70;;;18.50;1.00;;;;;;5010477;28;21238;-79
2021/09/20 08:27:26;;;;;;;5.60;5.10;;;18.70;1.00;;;;;;5014934;28;20406;-79
2021/09/20 08:29:54;;;;;;;6.57;5.57;;;18.70;1.00;;;;;;5014169;28;20535;-78
2021/09/20 08:32:24;;;;;;;7.67;6.97;;;18.70;1.00;;;;;;5011363;28;20468;-77
2021/09/20 08:34:52;;;;;;;7.07;6.37;;;18.70;1.00;;;;;;5015437;28;20499;-77
2021/09/20 08:37:20;;;;;;;5.53;5.03;;;18.80;1.00;;;;;;5012295;28;20458;-78
2021/09/20 08:39:48;;;;;;;6.97;6.20;;;18.80;1.00;;;;;;5010798;28;20508;-76
2021/09/20 08:42:17;;;;;;;8.02;7.18;;;18.90;1.00;;;;;;5010481;28;20501;-76
2021/09/20 08:44:45;;;;;;;7.17;6.47;;;19.00;1.00;;;;;;5024592;28;20205;-80
2021/09/20 08:47:14;;;;;;;6.37;5.77;;;19.00;1.00;;;;;;5026026;28;20465;-77
2021/09/20 08:49:45;;;;;;;11.23;6.90;;;18.90;1.00;;;;;;5010725;28;20528;-76
2021/09/20 08:52:13;;;;;;;6.50;5.37;;;18.90;1.00;;;;;;5012248;28;20481;-76
2021/09/20 08:54:42;;;;;;;6.83;6.10;;;19.00;1.00;;;;;;5020216;28;20457;-79
2021/09/20 08:57:10;;;;;;;8.57;7.77;;;19.00;1.00;;;;;;5025725;28;20472;-78
2021/09/20 08:59:39;;;;;;;6.40;5.80;;;18.90;1.00;;;;;;5010733;28;20480;-77
2021/09/20 09:02:07;;;;;;;5.53;5.03;;;18.90;1.00;;;;;;5009040;28;20554;-79
2021/09/20 09:04:39;;;;;;;6.23;5.60;;;18.90;1.00;;;;;;5010537;28;21088;-79
2021/09/20 09:07:11;;;;;;;6.63;5.40;;;18.90;1.00;;;;;;5005997;28;20500;-79
2021/09/20 09:09:40;;;;;;;7.93;6.17;;;18.90;1.00;;;;;;5028081;28;20530;-77
2021/09/20 09:12:14;;;;;;;7.80;6.90;;;18.90;1.00;;;;;;5011617;28;20469;-76
2021/09/20 09:14:46;;;;;;;5.70;5.20;;;18.80;1.00;;;;;;5002785;28;20830;-75
2021/09/20 09:17:17;;;;;;;6.10;5.17;;;18.90;1.00;;;;;;5011515;28;20465;-77
2021/09/20 09:19:48;;;;;;;6.43;5.83;;;18.90;1.00;;;;;;5011693;28;20581;-76
2021/09/20 09:22:18;;;;;;;4.70;4.30;;;18.90;1.00;;;;;;5010913;28;20469;-78
2021/09/20 09:24:55;;;;;;;5.20;4.70;;;18.90;1.00;;;;;;5011333;28;20453;-77
2021/09/20 09:27:24;;;;;;;6.90;6.20;;;18.90;1.00;;;;;;5009885;28;20447;-78
2021/09/20 09:30:02;;;;;;;5.23;4.83;;;18.90;1.00;;;;;;5009701;28;20688;-78
2021/09/20 09:32:30;;;;;;;7.57;6.10;;;18.90;1.00;;;;;;5010757;28;20491;-80
2021/09/20 09:35:03;;;;;;;7.43;5.60;;;18.90;1.00;;;;;;5011775;28;21916;-79
2021/09/20 09:37:33;;;;;;;8.50;5.80;;;18.90;1.00;;;;;;5007123;28;20463;-78
2021/09/20 09:40:14;;;;;;;7.10;6.40;;;18.90;1.00;;;;;;5008767;28;20444;-77
2021/09/20 09:42:43;;;;;;;6.83;5.73;;;18.80;1.00;;;;;;5009937;28;20218;-79
2021/09/20 09:45:25;;;;;;;6.65;5.50;;;18.70;1.00;;;;;;5008794;28;20462;-77
2021/09/20 09:48:14;;;;;;;7.97;7.18;;;18.70;1.00;;;;;;5023854;28;20486;-78
2021/09/20 09:50:46;;;;;;;7.77;6.30;;;18.80;1.00;;;;;;5004496;28;20569;-77
2021/09/20 09:53:31;;;;;;;7.60;6.13;;;18.80;1.00;;;;;;5007473;28;20544;-79
2021/09/20 09:56:01;;;;;;;6.90;6.20;;;18.80;1.00;;;;;;5007209;28;20515;-79
2021/09/20 09:58:30;;;;;;;8.77;6.67;;;18.70;1.00;;;;;;5010668;28;20461;-79
2021/09/20 10:01:15;;;;;;;9.83;6.13;;;18.70;1.00;;;;;;5009881;28;21000;-77
2021/09/20 10:04:09;;;;;;;8.23;5.63;;;18.70;1.00;;;;;;5011537;28;20520;-74
2021/09/20 10:06:54;;;;;;;9.43;6.60;;;18.70;1.00;;;;;;5001880;28;20941;-74
2021/09/20 10:09:25;;;;;;;7.43;5.43;;;18.70;1.00;;;;;;5009942;28;20496;-74
2021/09/20 10:11:55;;;;;;;6.20;5.60;;;18.70;1.00;;;;;;5009988;28;20981;-74
2021/09/20 10:14:24;;;;;;;7.20;6.50;;;18.70;1.00;;;;;;5010044;28;20965;-75
2021/09/20 10:16:54;;;;;;;7.10;6.37;;;18.70;1.00;;;;;;5007629;28;20461;-73
2021/09/20 10:19:23;;;;;;;7.53;5.97;;;18.70;1.00;;;;;;5007466;28;20449;-74
2021/09/20 10:21:52;;;;;;;8.00;6.20;;;18.80;1.00;;;;;;5009557;28;20485;-74
2021/09/20 10:24:21;;;;;;;6.57;5.93;;;18.80;1.00;;;;;;5007041;28;20453;-74
2021/09/20 10:26:53;;;;;;;7.30;6.60;;;18.80;1.00;;;;;;5008979;28;20475;-74
2021/09/20 10:29:23;;;;;;;7.43;6.77;;;18.90;1.00;;;;;;5008150;28;20457;-74
2021/09/20 10:31:52;;;;;;;6.10;5.60;;;18.80;1.00;;;;;;5007730;28;20496;-75
2021/09/20 10:34:26;;;;;;;7.07;6.33;;;18.80;1.00;;;;;;5008356;28;20464;-76
2021/09/20 10:37:08;;;;;;;6.10;5.50;;;18.80;1.00;;;;;;5002496;28;20500;-74
2021/09/20 10:40:06;;;;;;;7.10;6.50;;;18.80;1.00;;;;;;5008523;28;20449;-76
2021/09/20 10:43:00;;;;;;;6.77;5.90;;;18.80;1.00;;;;;;5008868;28;20477;-73
2021/09/20 10:45:55;;;;;;;6.27;5.60;;;18.70;1.00;;;;;;5007221;28;20523;-74
2021/09/20 10:48:48;;;;;;;6.10;5.33;;;18.80;1.00;;;;;;4984400;28;20476;-74
2021/09/20 10:51:25;;;;;;;7.73;6.43;;;18.90;1.00;;;;;;5006279;28;20580;-76
2021/09/20 10:54:23;;;;;;;9.20;5.73;;;18.90;1.00;;;;;;5009254;28;20450;-74
2021/09/20 10:56:54;;;;;;;6.80;6.10;;;18.90;1.00;;;;;;5005592;28;20955;-75
2021/09/20 10:59:28;;;;;;;7.60;6.63;;;19.00;1.00;;;;;;5005518;28;20453;-75
2021/09/20 11:02:15;;;;;;;5.17;4.67;;;19.00;1.00;;;;;;5007490;28;20531;-75
2021/09/20 11:04:44;;;;;;;7.90;6.30;;;19.00;1.00;;;;;;5009074;28;20441;-74
2021/09/20 11:07:23;;;;;;;8.70;6.57;;;19.10;1.00;;;;;;5007407;28;20457;-76
2021/09/20 11:10:09;;;;;;;7.37;6.00;;;19.10;1.00;;;;;;5007751;28;20457;-75
2021/09/20 11:12:56;;;;;;;8.07;5.27;;;19.10;1.00;;;;;;5007771;28;20496;-74
2021/09/20 11:15:26;;;;;;;8.70;5.80;;;19.20;1.00;;;;;;5005440;28;20598;-74
2021/09/20 11:17:54;;;;;;;6.83;6.23;;;19.10;1.00;;;;;;5007062;28;20849;-74
2021/09/20 11:20:36;;;;;;;5.87;5.33;;;19.10;1.00;;;;;;5008904;28;20452;-75
2021/09/20 11:23:33;;;;;;;7.10;6.37;;;19.10;1.00;;;;;;5002250;28;20727;-72
2021/09/20 11:26:19;;;;;;;7.33;6.53;;;19.00;99.90;;;;;;5007202;28;20896;-75
2021/09/20 11:28:50;;;;;;;7.70;5.83;;;19.00;99.90;;;;;;5011487;28;20460;-74
2021/09/20 11:31:27;;;;;;;6.57;5.83;;;19.00;99.90;;;;;;5007262;28;20822;-75
2021/09/20 11:33:55;;;;;;;5.83;4.80;;;19.10;99.90;;;;;;5015436;28;20464;-75
2021/09/20 11:36:28;;;;;;;5.53;4.33;;;19.10;99.90;;;;;;5010712;28;20457;-75
2021/09/20 11:39:12;;;;;;;6.63;5.57;;;19.10;99.90;;;;;;4997432;28;20461;-74
2021/09/20 11:41:42;;;;;;;6.00;4.60;;;19.20;99.90;;;;;;5013674;28;20539;-74
2021/09/20 11:44:14;;;;;;;4.83;4.43;;;19.20;99.90;;;;;;5014066;28;20485;-75
2021/09/20 11:46:43;;;;;;;5.60;5.00;;;19.20;99.90;;;;;;5009079;28;20515;-74
2021/09/20 11:49:15;;;;;;;5.90;5.40;;;19.20;99.90;;;;;;5014684;28;20527;-75
2021/09/20 11:51:44;;;;;;;7.10;5.20;;;19.30;99.90;;;;;;5008188;28;20867;-76
2021/09/20 11:54:31;;;;;;;5.63;5.13;;;19.30;99.90;;;;;;4999604;28;20461;-77
2021/09/20 11:57:14;;;;;;;4.80;4.30;;;19.30;99.90;;;;;;5008753;28;20457;-73
2021/09/20 11:59:43;;;;;;;6.30;5.70;;;19.30;99.90;;;;;;5007259;28;20449;-75
2021/09/20 12:02:31;;;;;;;5.27;4.77;;;19.40;99.90;;;;;;5008681;28;20499;-76
2021/09/20 12:05:00;;;;;;;5.77;5.17;;;19.30;99.90;;;;;;5015367;28;20488;-75
2021/09/20 12:07:30;;;;;;;9.00;7.13;;;19.40;99.90;;;;;;5012385;28;20523;-75
2021/09/20 12:09:59;;;;;;;7.00;5.60;;;19.40;99.90;;;;;;5009943;28;20543;-74
2021/09/20 12:12:30;;;;;;;5.70;5.10;;;19.50;99.90;;;;;;5007608;28;20473;-74
2021/09/20 12:15:01;;;;;;;7.43;5.70;;;19.50;99.90;;;;;;5010032;28;21007;-74
2021/09/20 12:17:53;;;;;;;6.17;5.57;;;19.40;99.90;;;;;;5010384;28;20457;-75
2021/09/20 12:20:25;;;;;;;6.60;5.93;;;19.40;99.90;;;;;;5009893;28;20461;-74
2021/09/20 12:22:54;;;;;;;6.10;5.23;;;19.50;99.90;;;;;;5002606;28;20485;-76
2021/09/20 12:25:39;;;;;;;5.03;4.53;;;19.50;99.90;;;;;;5008906;28;20457;-75
2021/09/20 12:28:16;;;;;;;8.37;6.30;;;19.50;99.90;;;;;;5013097;28;20830;-79
2021/09/20 12:30:54;;;;;;;7.80;6.03;;;19.50;99.90;;;;;;5013523;28;20487;-78
2021/09/20 12:33:25;;;;;;;7.00;6.30;;;19.50;99.90;;;;;;5012895;28;20828;-77
2021/09/20 12:35:53;;;;;;;7.30;6.50;;;19.50;99.90;;;;;;5014537;28;20475;-78
2021/09/20 12:38:27;;;;;;;6.37;5.73;;;19.40;99.90;;;;;;5010842;28;20523;-79
2021/09/20 12:40:57;;;;;;;9.53;7.17;;;19.40;99.90;;;;;;5016447;28;20486;-79
2021/09/20 12:43:32;;;;;;;8.17;7.20;;;19.40;99.90;;;;;;5015603;28;21075;-78
2021/09/20 12:46:12;;;;;;;6.77;6.10;;;19.40;99.90;;;;;;5012835;28;20469;-76
2021/09/20 12:48:44;;;;;;;7.90;6.43;;;19.30;99.90;;;;;;5012282;28;20465;-79
2021/09/20 12:51:13;;;;;;;7.30;6.23;;;19.30;99.90;;;;;;5010804;28;20477;-76
2021/09/20 12:53:44;;;;;;;7.60;6.50;;;19.30;99.90;;;;;;5014001;28;20922;-79
2021/09/20 12:56:14;;;;;;;7.13;5.80;;;19.30;99.90;;;;;;5011337;28;20453;-78
2021/09/20 12:58:49;;;;;;;6.80;6.10;;;19.30;99.90;;;;;;5012603;28;20458;-77
2021/09/20 13:01:26;;;;;;;7.60;6.63;;;19.30;99.90;;;;;;5011723;28;20507;-79
2021/09/20 13:04:01;;;;;;;6.80;6.00;;;19.30;99.90;;;;;;5012192;28;20540;-78
2021/09/20 13:06:30;;;;;;;6.80;5.87;;;19.30;99.90;;;;;;5003600;28;20472;-77
2021/09/20 13:09:03;;;;;;;6.60;5.77;;;19.40;99.90;;;;;;5010283;28;20465;-79
2021/09/20 13:11:40;;;;;;;6.07;5.17;;;19.40;99.90;;;;;;5011682;28;20473;-78